sensor_id;sensor_type;location;lat;lon;timestamp;temperature;humidity
6724;DHT22;3399;52.530;13.304;2023-07-22T00:00:49;15.00;99.90
6724;DHT22;3399;52.530;13.304;2023-07-22T00:03:14;15.00;99.90
6724;DHT22;3399;52.530;13.304;2023-07-22T00:05:40;15.10;99.90
6724;DHT22;3399;52.530;13.304;2023-07-22T00:08:05;15.10;99.90
6724;DHT22;3399;52.530;13.304;2023-07-22T00:10:31;15.10;99.90
6724;DHT22;3399;52.530;13.304;2023-07-22T00:12:56;15.00;99.90
6724;DHT22;3399;52.530;13.304;2023-07-22T00:15:22;15.10;99.90
6724;DHT22;3399;52.530;13.304;2023-07-22T00:17:49;15.10;99.90
6724;DHT22;3399;52.530;13.304;2023-07-22T00:20:16;15.20;99.90
6724;DHT22;3399;52.530;13.304;2023-07-22T00:22:41;15.20;99.90
6724;DHT22;3399;52.530;13.304;2023-07-22T00:25:11;15.20;99.90
6724;DHT22;3399;52.530;13.304;2023-07-22T00:27:38;15.20;99.90
6724;DHT22;3399;52.530;13.304;2023-07-22T00:30:06;15.20;99.90
6724;DHT22;3399;52.530;13.304;2023-07-22T00:32:31;15.30;99.90
6724;DHT22;3399;52.530;13.304;2023-07-22T00:34:57;15.20;99.90
6724;DHT22;3399;52.530;13.304;2023-07-22T00:37:23;15.20;99.90
6724;DHT22;3399;52.530;13.304;2023-07-22T00:39:48;15.20;99.90
6724;DHT22;3399;52.530;13.304;2023-07-22T00:42:14;15.00;99.90
6724;DHT22;3399;52.530;13.304;2023-07-22T00:44:39;14.90;99.90
6724;DHT22;3399;52.530;13.304;2023-07-22T00:47:05;14.80;99.90
6724;DHT22;3399;52.530;13.304;2023-07-22T00:49:31;14.70;99.90
6724;DHT22;3399;52.530;13.304;2023-07-22T00:52:01;14.60;99.90
6724;DHT22;3399;52.530;13.304;2023-07-22T00:54:30;14.60;99.90
6724;DHT22;3399;52.530;13.304;2023-07-22T00:56:57;14.70;99.90
6724;DHT22;3399;52.530;13.304;2023-07-22T00:59:23;14.70;99.90
6724;DHT22;3399;52.530;13.304;2023-07-22T01:01:49;14.90;99.90
6724;DHT22;3399;52.530;13.304;2023-07-22T01:04:15;14.80;99.90
6724;DHT22;3399;52.530;13.304;2023-07-22T01:06:44;14.70;99.90
6724;DHT22;3399;52.530;13.304;2023-07-22T01:09:09;14.70;99.90
6724;DHT22;3399;52.530;13.304;2023-07-22T01:11:35;14.60;99.90
6724;DHT22;3399;52.530;13.304;2023-07-22T01:14:01;14.50;99.90
6724;DHT22;3399;52.530;13.304;2023-07-22T01:16:27;14.50;99.90
6724;DHT22;3399;52.530;13.304;2023-07-22T01:18:53;14.50;99.90
6724;DHT22;3399;52.530;13.304;2023-07-22T01:21:22;14.40;99.90
6724;DHT22;3399;52.530;13.304;2023-07-22T01:23:48;14.50;99.90
6724;DHT22;3399;52.530;13.304;2023-07-22T01:26:14;14.40;99.90
6724;DHT22;3399;52.530;13.304;2023-07-22T01:28:39;14.30;99.90
6724;DHT22;3399;52.530;13.304;2023-07-22T01:31:05;14.50;99.90
6724;DHT22;3399;52.530;13.304;2023-07-22T01:33:31;14.50;99.90
6724;DHT22;3399;52.530;13.304;2023-07-22T01:35:57;14.40;99.90
6724;DHT22;3399;52.530;13.304;2023-07-22T01:38:22;14.40;99.90
6724;DHT22;3399;52.530;13.304;2023-07-22T01:40:48;14.40;99.90
6724;DHT22;3399;52.530;13.304;2023-07-22T01:43:13;14.40;99.90
6724;DHT22;3399;52.530;13.304;2023-07-22T01:45:39;14.30;99.90
6724;DHT22;3399;52.530;13.304;2023-07-22T01:48:05;14.40;99.90
6724;DHT22;3399;52.530;13.304;2023-07-22T01:50:31;14.40;99.90
6724;DHT22;3399;52.530;13.304;2023-07-22T01:52:57;14.40;99.90
6724;DHT22;3399;52.530;13.304;2023-07-22T01:55:23;14.50;99.90
6724;DHT22;3399;52.530;13.304;2023-07-22T01:57:48;14.50;99.90
6724;DHT22;3399;52.530;13.304;2023-07-22T02:00:14;14.60;99.90
6724;DHT22;3399;52.530;13.304;2023-07-22T02:02:41;14.50;99.90
6724;DHT22;3399;52.530;13.304;2023-07-22T02:05:08;14.50;99.90
6724;DHT22;3399;52.530;13.304;2023-07-22T02:07:35;14.40;99.90
6724;DHT22;3399;52.530;13.304;2023-07-22T02:10:00;14.60;99.90
6724;DHT22;3399;52.530;13.304;2023-07-22T02:12:26;14.40;99.90
6724;DHT22;3399;52.530;13.304;2023-07-22T02:14:51;14.50;99.90
6724;DHT22;3399;52.530;13.304;2023-07-22T02:17:17;14.40;99.90
6724;DHT22;3399;52.530;13.304;2023-07-22T02:19:42;14.30;99.90
6724;DHT22;3399;52.530;13.304;2023-07-22T02:22:11;14.30;99.90
6724;DHT22;3399;52.530;13.304;2023-07-22T02:24:38;14.30;99.90
6724;DHT22;3399;52.530;13.304;2023-07-22T02:27:04;14.20;99.90
6724;DHT22;3399;52.530;13.304;2023-07-22T02:29:30;14.10;99.90
6724;DHT22;3399;52.530;13.304;2023-07-22T02:31:56;14.20;99.90
6724;DHT22;3399;52.530;13.304;2023-07-22T02:34:23;14.20;99.90
6724;DHT22;3399;52.530;13.304;2023-07-22T02:36:48;14.20;99.90
6724;DHT22;3399;52.530;13.304;2023-07-22T02:39:14;14.30;99.90
6724;DHT22;3399;52.530;13.304;2023-07-22T02:41:40;14.30;99.90
6724;DHT22;3399;52.530;13.304;2023-07-22T02:44:05;14.10;99.90
6724;DHT22;3399;52.530;13.304;2023-07-22T02:46:31;14.10;99.90
6724;DHT22;3399;52.530;13.304;2023-07-22T02:48:57;14.10;99.90
6724;DHT22;3399;52.530;13.304;2023-07-22T02:51:23;14.00;99.90
6724;DHT22;3399;52.530;13.304;2023-07-22T02:53:48;14.10;99.90
6724;DHT22;3399;52.530;13.304;2023-07-22T02:56:14;14.10;99.90
6724;DHT22;3399;52.530;13.304;2023-07-22T02:58:40;14.10;99.90
6724;DHT22;3399;52.530;13.304;2023-07-22T03:01:07;14.10;99.90
6724;DHT22;3399;52.530;13.304;2023-07-22T03:03:34;14.10;99.90
6724;DHT22;3399;52.530;13.304;2023-07-22T03:06:00;14.00;99.90
6724;DHT22;3399;52.530;13.304;2023-07-22T03:08:27;14.00;99.90
6724;DHT22;3399;52.530;13.304;2023-07-22T03:10:53;14.10;99.90
6724;DHT22;3399;52.530;13.304;2023-07-22T03:13:18;14.20;99.90
6724;DHT22;3399;52.530;13.304;2023-07-22T03:15:44;14.30;99.90
6724;DHT22;3399;52.530;13.304;2023-07-22T03:18:10;14.20;99.90
6724;DHT22;3399;52.530;13.304;2023-07-22T03:20:39;14.10;99.90
6724;DHT22;3399;52.530;13.304;2023-07-22T03:23:05;14.00;99.90
6724;DHT22;3399;52.530;13.304;2023-07-22T03:25:32;14.00;99.90
6724;DHT22;3399;52.530;13.304;2023-07-22T03:28:03;14.00;99.90
6724;DHT22;3399;52.530;13.304;2023-07-22T03:30:29;14.00;99.90
6724;DHT22;3399;52.530;13.304;2023-07-22T03:33:05;14.00;99.90
6724;DHT22;3399;52.530;13.304;2023-07-22T03:35:32;14.00;99.90
6724;DHT22;3399;52.530;13.304;2023-07-22T03:37:58;14.00;99.90
6724;DHT22;3399;52.530;13.304;2023-07-22T03:40:23;14.00;99.90
6724;DHT22;3399;52.530;13.304;2023-07-22T03:42:55;14.00;99.90
6724;DHT22;3399;52.530;13.304;2023-07-22T03:45:21;13.80;99.90
6724;DHT22;3399;52.530;13.304;2023-07-22T03:47:52;13.90;99.90
6724;DHT22;3399;52.530;13.304;2023-07-22T03:50:18;14.10;99.90
6724;DHT22;3399;52.530;13.304;2023-07-22T03:52:43;14.20;99.90
6724;DHT22;3399;52.530;13.304;2023-07-22T03:55:09;14.10;99.90
6724;DHT22;3399;52.530;13.304;2023-07-22T03:57:35;14.20;99.90
6724;DHT22;3399;52.530;13.304;2023-07-22T04:00:00;14.00;99.90
6724;DHT22;3399;52.530;13.304;2023-07-22T04:02:26;13.90;99.90
6724;DHT22;3399;52.530;13.304;2023-07-22T04:04:53;13.90;99.90
6724;DHT22;3399;52.530;13.304;2023-07-22T04:07:19;13.90;99.90
6724;DHT22;3399;52.530;13.304;2023-07-22T04:09:44;14.00;99.90
6724;DHT22;3399;52.530;13.304;2023-07-22T04:12:13;13.90;99.90
6724;DHT22;3399;52.530;13.304;2023-07-22T04:14:39;13.80;99.90
6724;DHT22;3399;52.530;13.304;2023-07-22T04:17:04;13.80;99.90
6724;DHT22;3399;52.530;13.304;2023-07-22T04:19:30;13.80;99.90
6724;DHT22;3399;52.530;13.304;2023-07-22T04:21:56;13.90;99.90
6724;DHT22;3399;52.530;13.304;2023-07-22T04:24:21;14.00;99.90
6724;DHT22;3399;52.530;13.304;2023-07-22T04:26:47;13.90;99.90
6724;DHT22;3399;52.530;13.304;2023-07-22T04:29:13;13.90;99.90
6724;DHT22;3399;52.530;13.304;2023-07-22T04:31:38;13.90;99.90
6724;DHT22;3399;52.530;13.304;2023-07-22T04:34:04;14.10;99.90
6724;DHT22;3399;52.530;13.304;2023-07-22T04:36:33;14.10;99.90
6724;DHT22;3399;52.530;13.304;2023-07-22T04:38:59;14.00;99.90
6724;DHT22;3399;52.530;13.304;2023-07-22T04:41:24;14.00;99.90
6724;DHT22;3399;52.530;13.304;2023-07-22T04:43:50;14.20;99.90
6724;DHT22;3399;52.530;13.304;2023-07-22T04:46:16;14.20;99.90
6724;DHT22;3399;52.530;13.304;2023-07-22T04:48:42;14.10;99.90
6724;DHT22;3399;52.530;13.304;2023-07-22T04:51:07;14.30;99.90
6724;DHT22;3399;52.530;13.304;2023-07-22T04:53:33;14.40;99.90
6724;DHT22;3399;52.530;13.304;2023-07-22T04:55:59;14.40;99.90
6724;DHT22;3399;52.530;13.304;2023-07-22T04:58:24;14.20;99.90
6724;DHT22;3399;52.530;13.304;2023-07-22T05:00:50;14.40;99.90
6724;DHT22;3399;52.530;13.304;2023-07-22T05:03:16;14.30;99.90
6724;DHT22;3399;52.530;13.304;2023-07-22T05:05:41;14.20;99.90
6724;DHT22;3399;52.530;13.304;2023-07-22T05:08:07;14.20;99.90
6724;DHT22;3399;52.530;13.304;2023-07-22T05:10:33;14.20;99.90
6724;DHT22;3399;52.530;13.304;2023-07-22T05:12:59;14.30;99.90
6724;DHT22;3399;52.530;13.304;2023-07-22T05:15:24;14.40;99.90
6724;DHT22;3399;52.530;13.304;2023-07-22T05:17:50;14.30;99.90
6724;DHT22;3399;52.530;13.304;2023-07-22T05:20:16;14.40;99.90
6724;DHT22;3399;52.530;13.304;2023-07-22T05:22:42;14.30;99.90
6724;DHT22;3399;52.530;13.304;2023-07-22T05:25:08;14.30;99.90
6724;DHT22;3399;52.530;13.304;2023-07-22T05:27:35;14.30;99.90
6724;DHT22;3399;52.530;13.304;2023-07-22T05:30:00;14.30;99.90
6724;DHT22;3399;52.530;13.304;2023-07-22T05:32:28;14.30;99.90
6724;DHT22;3399;52.530;13.304;2023-07-22T05:34:54;14.40;99.90
6724;DHT22;3399;52.530;13.304;2023-07-22T05:37:19;14.40;99.90
6724;DHT22;3399;52.530;13.304;2023-07-22T05:39:45;14.40;99.90
6724;DHT22;3399;52.530;13.304;2023-07-22T05:42:10;14.40;99.90
6724;DHT22;3399;52.530;13.304;2023-07-22T05:44:36;14.40;99.90
6724;DHT22;3399;52.530;13.304;2023-07-22T05:47:01;14.50;99.90
6724;DHT22;3399;52.530;13.304;2023-07-22T05:49:28;14.60;99.90
6724;DHT22;3399;52.530;13.304;2023-07-22T05:51:53;14.60;99.90
6724;DHT22;3399;52.530;13.304;2023-07-22T05:54:19;14.60;99.90
6724;DHT22;3399;52.530;13.304;2023-07-22T05:56:45;14.60;99.90
6724;DHT22;3399;52.530;13.304;2023-07-22T05:59:10;14.60;99.90
6724;DHT22;3399;52.530;13.304;2023-07-22T06:01:37;14.90;99.90
6724;DHT22;3399;52.530;13.304;2023-07-22T06:04:04;14.90;99.90
6724;DHT22;3399;52.530;13.304;2023-07-22T06:06:29;14.80;99.90
6724;DHT22;3399;52.530;13.304;2023-07-22T06:08:55;14.70;99.90
6724;DHT22;3399;52.530;13.304;2023-07-22T06:11:21;14.70;99.90
6724;DHT22;3399;52.530;13.304;2023-07-22T06:13:46;15.00;99.90
6724;DHT22;3399;52.530;13.304;2023-07-22T06:16:12;15.00;99.90
6724;DHT22;3399;52.530;13.304;2023-07-22T06:18:38;15.00;99.90
6724;DHT22;3399;52.530;13.304;2023-07-22T06:21:04;15.10;99.90
6724;DHT22;3399;52.530;13.304;2023-07-22T06:23:29;15.10;99.90
6724;DHT22;3399;52.530;13.304;2023-07-22T06:25:55;15.20;99.90
6724;DHT22;3399;52.530;13.304;2023-07-22T06:28:21;15.10;99.90
6724;DHT22;3399;52.530;13.304;2023-07-22T06:30:46;15.10;99.90
6724;DHT22;3399;52.530;13.304;2023-07-22T06:33:12;15.10;99.90
6724;DHT22;3399;52.530;13.304;2023-07-22T06:35:37;15.20;99.90
6724;DHT22;3399;52.530;13.304;2023-07-22T06:38:02;15.30;99.90
6724;DHT22;3399;52.530;13.304;2023-07-22T06:40:28;15.30;99.90
6724;DHT22;3399;52.530;13.304;2023-07-22T06:42:53;15.30;99.90
6724;DHT22;3399;52.530;13.304;2023-07-22T06:45:19;15.40;99.90
6724;DHT22;3399;52.530;13.304;2023-07-22T06:47:44;15.60;99.90
6724;DHT22;3399;52.530;13.304;2023-07-22T06:50:12;15.80;99.90
6724;DHT22;3399;52.530;13.304;2023-07-22T06:52:37;15.90;99.90
6724;DHT22;3399;52.530;13.304;2023-07-22T06:55:03;16.10;99.90
6724;DHT22;3399;52.530;13.304;2023-07-22T06:57:29;16.10;99.90
6724;DHT22;3399;52.530;13.304;2023-07-22T06:59:55;16.00;99.90
6724;DHT22;3399;52.530;13.304;2023-07-22T07:02:21;15.90;99.90
6724;DHT22;3399;52.530;13.304;2023-07-22T07:04:47;15.90;99.90
6724;DHT22;3399;52.530;13.304;2023-07-22T07:07:13;16.10;99.90
6724;DHT22;3399;52.530;13.304;2023-07-22T07:09:39;16.10;99.90
6724;DHT22;3399;52.530;13.304;2023-07-22T07:12:06;16.10;99.90
6724;DHT22;3399;52.530;13.304;2023-07-22T07:14:33;16.10;99.90
6724;DHT22;3399;52.530;13.304;2023-07-22T07:16:59;16.20;99.90
6724;DHT22;3399;52.530;13.304;2023-07-22T07:19:25;16.20;99.90
6724;DHT22;3399;52.530;13.304;2023-07-22T07:21:50;16.40;99.90
6724;DHT22;3399;52.530;13.304;2023-07-22T07:24:16;16.30;99.90
6724;DHT22;3399;52.530;13.304;2023-07-22T07:26:41;16.30;99.90
6724;DHT22;3399;52.530;13.304;2023-07-22T07:29:07;16.40;99.90
6724;DHT22;3399;52.530;13.304;2023-07-22T07:31:43;16.70;99.90
6724;DHT22;3399;52.530;13.304;2023-07-22T07:34:09;16.60;99.90
6724;DHT22;3399;52.530;13.304;2023-07-22T07:36:34;16.40;99.90
6724;DHT22;3399;52.530;13.304;2023-07-22T07:39:00;16.40;99.90
6724;DHT22;3399;52.530;13.304;2023-07-22T07:41:25;16.60;99.90
6724;DHT22;3399;52.530;13.304;2023-07-22T07:43:51;16.70;99.90
6724;DHT22;3399;52.530;13.304;2023-07-22T07:46:21;16.80;99.90
6724;DHT22;3399;52.530;13.304;2023-07-22T07:48:52;16.80;99.90
6724;DHT22;3399;52.530;13.304;2023-07-22T07:51:19;16.70;99.90
6724;DHT22;3399;52.530;13.304;2023-07-22T07:53:45;16.70;99.90
6724;DHT22;3399;52.530;13.304;2023-07-22T07:56:15;16.90;99.90
6724;DHT22;3399;52.530;13.304;2023-07-22T07:58:41;16.80;99.90
6724;DHT22;3399;52.530;13.304;2023-07-22T08:01:07;17.10;99.90
6724;DHT22;3399;52.530;13.304;2023-07-22T08:03:34;16.90;99.90
6724;DHT22;3399;52.530;13.304;2023-07-22T08:06:00;17.10;99.90
6724;DHT22;3399;52.530;13.304;2023-07-22T08:08:26;17.10;99.90
6724;DHT22;3399;52.530;13.304;2023-07-22T08:11:05;16.90;99.90
6724;DHT22;3399;52.530;13.304;2023-07-22T08:13:31;16.90;99.90
6724;DHT22;3399;52.530;13.304;2023-07-22T08:16:03;16.90;99.90
6724;DHT22;3399;52.530;13.304;2023-07-22T08:18:30;17.10;99.90
6724;DHT22;3399;52.530;13.304;2023-07-22T08:20:56;17.20;99.90
6724;DHT22;3399;52.530;13.304;2023-07-22T08:23:22;17.20;99.90
6724;DHT22;3399;52.530;13.304;2023-07-22T08:25:48;17.30;99.90
6724;DHT22;3399;52.530;13.304;2023-07-22T08:28:13;17.40;99.90
6724;DHT22;3399;52.530;13.304;2023-07-22T08:30:39;17.60;99.90
6724;DHT22;3399;52.530;13.304;2023-07-22T08:33:12;17.60;99.90
6724;DHT22;3399;52.530;13.304;2023-07-22T08:35:38;17.50;99.90
6724;DHT22;3399;52.530;13.304;2023-07-22T08:38:04;17.60;99.90
6724;DHT22;3399;52.530;13.304;2023-07-22T08:40:37;17.50;99.90
6724;DHT22;3399;52.530;13.304;2023-07-22T08:43:05;17.60;99.90
6724;DHT22;3399;52.530;13.304;2023-07-22T08:45:33;17.70;99.90
6724;DHT22;3399;52.530;13.304;2023-07-22T08:48:03;17.60;99.90
6724;DHT22;3399;52.530;13.304;2023-07-22T08:50:59;17.60;99.90
6724;DHT22;3399;52.530;13.304;2023-07-22T08:53:27;17.80;99.90
6724;DHT22;3399;52.530;13.304;2023-07-22T09:02:38;17.80;99.90
6724;DHT22;3399;52.530;13.304;2023-07-22T09:05:05;17.80;99.90
6724;DHT22;3399;52.530;13.304;2023-07-22T09:07:31;17.90;99.90
6724;DHT22;3399;52.530;13.304;2023-07-22T09:09:57;18.20;99.90
6724;DHT22;3399;52.530;13.304;2023-07-22T09:12:23;18.40;99.90
6724;DHT22;3399;52.530;13.304;2023-07-22T09:14:50;18.40;99.90
6724;DHT22;3399;52.530;13.304;2023-07-22T09:17:16;18.50;99.90
6724;DHT22;3399;52.530;13.304;2023-07-22T09:19:41;18.50;99.90
6724;DHT22;3399;52.530;13.304;2023-07-22T09:22:10;18.50;99.90
6724;DHT22;3399;52.530;13.304;2023-07-22T09:24:35;18.60;99.90
6724;DHT22;3399;52.530;13.304;2023-07-22T09:27:01;18.40;99.90
6724;DHT22;3399;52.530;13.304;2023-07-22T09:29:38;18.50;99.90
6724;DHT22;3399;52.530;13.304;2023-07-22T09:32:05;18.50;99.90
6724;DHT22;3399;52.530;13.304;2023-07-22T09:34:31;18.70;99.90
6724;DHT22;3399;52.530;13.304;2023-07-22T09:36:58;18.80;99.90
6724;DHT22;3399;52.530;13.304;2023-07-22T09:39:26;18.80;99.90
6724;DHT22;3399;52.530;13.304;2023-07-22T09:41:52;19.00;99.90
6724;DHT22;3399;52.530;13.304;2023-07-22T09:44:21;19.00;99.90
6724;DHT22;3399;52.530;13.304;2023-07-22T09:46:50;18.80;99.90
6724;DHT22;3399;52.530;13.304;2023-07-22T09:49:17;18.80;99.90
6724;DHT22;3399;52.530;13.304;2023-07-22T09:51:43;19.10;99.90
6724;DHT22;3399;52.530;13.304;2023-07-22T09:54:09;19.30;99.90
6724;DHT22;3399;52.530;13.304;2023-07-22T09:56:47;19.30;99.90
6724;DHT22;3399;52.530;13.304;2023-07-22T09:59:13;19.20;99.90
6724;DHT22;3399;52.530;13.304;2023-07-22T10:01:40;19.20;99.90
6724;DHT22;3399;52.530;13.304;2023-07-22T10:04:06;19.30;99.90
6724;DHT22;3399;52.530;13.304;2023-07-22T10:06:33;19.40;99.90
6724;DHT22;3399;52.530;13.304;2023-07-22T10:09:05;19.40;99.70
6724;DHT22;3399;52.530;13.304;2023-07-22T10:11:34;19.00;99.40
6724;DHT22;3399;52.530;13.304;2023-07-22T10:14:02;19.10;99.90
6724;DHT22;3399;52.530;13.304;2023-07-22T10:16:28;19.40;99.40
6724;DHT22;3399;52.530;13.304;2023-07-22T10:18:54;19.60;99.20
6724;DHT22;3399;52.530;13.304;2023-07-22T10:21:20;19.90;97.80
6724;DHT22;3399;52.530;13.304;2023-07-22T10:23:47;19.80;99.10
6724;DHT22;3399;52.530;13.304;2023-07-22T10:26:17;19.90;97.40
6724;DHT22;3399;52.530;13.304;2023-07-22T10:28:45;19.90;98.40
6724;DHT22;3399;52.530;13.304;2023-07-22T10:31:15;19.90;97.20
6724;DHT22;3399;52.530;13.304;2023-07-22T10:33:47;19.70;97.00
6724;DHT22;3399;52.530;13.304;2023-07-22T10:36:14;19.50;96.80
6724;DHT22;3399;52.530;13.304;2023-07-22T10:38:41;19.60;96.20
6724;DHT22;3399;52.530;13.304;2023-07-22T10:41:15;19.70;96.50
6724;DHT22;3399;52.530;13.304;2023-07-22T10:43:57;19.80;96.80
6724;DHT22;3399;52.530;13.304;2023-07-22T10:46:35;19.80;96.40
6724;DHT22;3399;52.530;13.304;2023-07-22T10:49:12;19.50;96.20
6724;DHT22;3399;52.530;13.304;2023-07-22T10:51:41;19.40;95.30
6724;DHT22;3399;52.530;13.304;2023-07-22T10:54:14;19.40;96.30
6724;DHT22;3399;52.530;13.304;2023-07-22T10:56:45;19.70;95.40
6724;DHT22;3399;52.530;13.304;2023-07-22T10:59:12;20.10;94.50
6724;DHT22;3399;52.530;13.304;2023-07-22T11:01:38;20.20;95.50
6724;DHT22;3399;52.530;13.304;2023-07-22T11:04:14;20.20;94.40
6724;DHT22;3399;52.530;13.304;2023-07-22T11:14:32;20.30;93.70
6724;DHT22;3399;52.530;13.304;2023-07-22T11:17:00;20.50;92.60
6724;DHT22;3399;52.530;13.304;2023-07-22T11:19:26;20.70;92.80
6724;DHT22;3399;52.530;13.304;2023-07-22T11:21:52;20.80;93.10
6724;DHT22;3399;52.530;13.304;2023-07-22T11:24:23;21.00;92.60
6724;DHT22;3399;52.530;13.304;2023-07-22T11:26:53;21.40;92.50
6724;DHT22;3399;52.530;13.304;2023-07-22T11:29:19;21.30;92.10
6724;DHT22;3399;52.530;13.304;2023-07-22T11:31:46;21.30;93.00
6724;DHT22;3399;52.530;13.304;2023-07-22T11:34:13;21.50;93.90
6724;DHT22;3399;52.530;13.304;2023-07-22T11:36:39;22.00;90.60
6724;DHT22;3399;52.530;13.304;2023-07-22T11:39:07;22.20;90.20
6724;DHT22;3399;52.530;13.304;2023-07-22T11:41:33;22.10;87.60
6724;DHT22;3399;52.530;13.304;2023-07-22T11:43:59;21.80;90.70
6724;DHT22;3399;52.530;13.304;2023-07-22T11:46:29;21.80;92.20
6724;DHT22;3399;52.530;13.304;2023-07-22T11:48:55;21.70;86.30
6724;DHT22;3399;52.530;13.304;2023-07-22T11:51:24;21.80;89.10
6724;DHT22;3399;52.530;13.304;2023-07-22T11:53:51;21.40;88.80
6724;DHT22;3399;52.530;13.304;2023-07-22T11:56:26;21.50;89.40
6724;DHT22;3399;52.530;13.304;2023-07-22T11:58:53;22.10;88.90
6724;DHT22;3399;52.530;13.304;2023-07-22T12:01:19;22.70;83.90
6724;DHT22;3399;52.530;13.304;2023-07-22T12:03:45;22.80;83.80
6724;DHT22;3399;52.530;13.304;2023-07-22T12:06:10;22.90;83.80
6724;DHT22;3399;52.530;13.304;2023-07-22T12:08:37;22.90;83.90
6724;DHT22;3399;52.530;13.304;2023-07-22T12:11:03;22.90;83.60
6724;DHT22;3399;52.530;13.304;2023-07-22T12:13:34;22.90;84.10
6724;DHT22;3399;52.530;13.304;2023-07-22T12:16:05;23.70;80.10
6724;DHT22;3399;52.530;13.304;2023-07-22T12:18:44;23.50;78.10
6724;DHT22;3399;52.530;13.304;2023-07-22T12:21:10;23.20;79.40
6724;DHT22;3399;52.530;13.304;2023-07-22T12:23:36;22.90;82.40
6724;DHT22;3399;52.530;13.304;2023-07-22T12:26:03;22.80;80.40
6724;DHT22;3399;52.530;13.304;2023-07-22T12:28:28;23.00;77.50
6724;DHT22;3399;52.530;13.304;2023-07-22T12:30:54;23.10;76.90
6724;DHT22;3399;52.530;13.304;2023-07-22T12:33:20;22.60;80.00
6724;DHT22;3399;52.530;13.304;2023-07-22T12:35:46;22.20;80.40
6724;DHT22;3399;52.530;13.304;2023-07-22T12:38:11;22.20;81.90
6724;DHT22;3399;52.530;13.304;2023-07-22T12:40:38;22.30;81.20
6724;DHT22;3399;52.530;13.304;2023-07-22T12:43:03;22.40;81.30
6724;DHT22;3399;52.530;13.304;2023-07-22T12:45:29;22.50;79.90
6724;DHT22;3399;52.530;13.304;2023-07-22T12:47:55;22.40;81.40
6724;DHT22;3399;52.530;13.304;2023-07-22T12:50:20;22.60;80.80
6724;DHT22;3399;52.530;13.304;2023-07-22T12:52:46;23.00;81.80
6724;DHT22;3399;52.530;13.304;2023-07-22T12:55:11;22.80;83.30
6724;DHT22;3399;52.530;13.304;2023-07-22T12:57:36;22.50;85.40
6724;DHT22;3399;52.530;13.304;2023-07-22T13:00:02;22.20;82.80
6724;DHT22;3399;52.530;13.304;2023-07-22T13:02:32;22.30;84.10
6724;DHT22;3399;52.530;13.304;2023-07-22T13:04:57;22.50;83.10
6724;DHT22;3399;52.530;13.304;2023-07-22T13:07:23;22.10;84.10
6724;DHT22;3399;52.530;13.304;2023-07-22T13:09:48;22.10;84.70
6724;DHT22;3399;52.530;13.304;2023-07-22T13:12:15;22.40;84.20
6724;DHT22;3399;52.530;13.304;2023-07-22T13:14:41;22.30;83.20
6724;DHT22;3399;52.530;13.304;2023-07-22T13:17:06;22.10;84.40
6724;DHT22;3399;52.530;13.304;2023-07-22T13:19:32;22.30;82.50
6724;DHT22;3399;52.530;13.304;2023-07-22T13:21:57;22.70;81.20
6724;DHT22;3399;52.530;13.304;2023-07-22T13:24:22;22.40;81.40
6724;DHT22;3399;52.530;13.304;2023-07-22T13:26:48;22.70;81.30
6724;DHT22;3399;52.530;13.304;2023-07-22T13:29:13;23.20;79.00
6724;DHT22;3399;52.530;13.304;2023-07-22T13:31:39;23.40;78.00
6724;DHT22;3399;52.530;13.304;2023-07-22T13:34:04;23.10;79.10
6724;DHT22;3399;52.530;13.304;2023-07-22T13:36:30;22.40;79.10
6724;DHT22;3399;52.530;13.304;2023-07-22T13:38:55;22.30;80.70
6724;DHT22;3399;52.530;13.304;2023-07-22T13:41:21;22.40;80.00
6724;DHT22;3399;52.530;13.304;2023-07-22T13:43:52;22.00;81.60
6724;DHT22;3399;52.530;13.304;2023-07-22T13:46:18;22.20;81.80
6724;DHT22;3399;52.530;13.304;2023-07-22T13:48:43;21.70;81.00
6724;DHT22;3399;52.530;13.304;2023-07-22T13:51:08;21.70;82.90
6724;DHT22;3399;52.530;13.304;2023-07-22T13:53:34;21.60;84.10
6724;DHT22;3399;52.530;13.304;2023-07-22T13:55:59;21.80;82.90
6724;DHT22;3399;52.530;13.304;2023-07-22T13:58:25;21.90;85.30
6724;DHT22;3399;52.530;13.304;2023-07-22T14:00:50;21.90;83.50
6724;DHT22;3399;52.530;13.304;2023-07-22T14:03:16;21.80;83.70
6724;DHT22;3399;52.530;13.304;2023-07-22T14:05:41;21.70;84.50
6724;DHT22;3399;52.530;13.304;2023-07-22T14:08:07;21.50;83.20
6724;DHT22;3399;52.530;13.304;2023-07-22T14:10:32;21.40;83.00
6724;DHT22;3399;52.530;13.304;2023-07-22T14:12:58;21.60;82.70
6724;DHT22;3399;52.530;13.304;2023-07-22T14:15:23;21.80;82.30
6724;DHT22;3399;52.530;13.304;2023-07-22T14:17:49;22.20;81.40
6724;DHT22;3399;52.530;13.304;2023-07-22T14:20:15;22.30;82.40
6724;DHT22;3399;52.530;13.304;2023-07-22T14:22:41;22.50;80.30
6724;DHT22;3399;52.530;13.304;2023-07-22T14:25:08;22.20;82.50
6724;DHT22;3399;52.530;13.304;2023-07-22T14:27:38;22.20;81.10
6724;DHT22;3399;52.530;13.304;2023-07-22T14:30:05;22.00;82.30
6724;DHT22;3399;52.530;13.304;2023-07-22T14:32:31;22.20;82.80
6724;DHT22;3399;52.530;13.304;2023-07-22T14:34:56;22.30;82.90
6724;DHT22;3399;52.530;13.304;2023-07-22T14:37:22;22.30;81.80
6724;DHT22;3399;52.530;13.304;2023-07-22T14:39:49;22.60;80.20
6724;DHT22;3399;52.530;13.304;2023-07-22T14:42:15;22.70;79.20
6724;DHT22;3399;52.530;13.304;2023-07-22T14:44:40;22.70;80.30
6724;DHT22;3399;52.530;13.304;2023-07-22T14:47:06;22.20;83.00
6724;DHT22;3399;52.530;13.304;2023-07-22T14:49:31;22.00;82.50
6724;DHT22;3399;52.530;13.304;2023-07-22T14:51:56;22.20;82.40
6724;DHT22;3399;52.530;13.304;2023-07-22T14:54:22;22.00;84.60
6724;DHT22;3399;52.530;13.304;2023-07-22T14:56:48;22.00;85.00
6724;DHT22;3399;52.530;13.304;2023-07-22T14:59:15;21.80;83.30
6724;DHT22;3399;52.530;13.304;2023-07-22T15:01:41;21.60;85.20
6724;DHT22;3399;52.530;13.304;2023-07-22T15:04:07;21.50;85.60
6724;DHT22;3399;52.530;13.304;2023-07-22T15:06:32;21.50;85.80
6724;DHT22;3399;52.530;13.304;2023-07-22T15:08:58;21.60;84.40
6724;DHT22;3399;52.530;13.304;2023-07-22T15:11:24;21.60;85.40
6724;DHT22;3399;52.530;13.304;2023-07-22T15:13:49;21.60;85.20
6724;DHT22;3399;52.530;13.304;2023-07-22T15:16:15;21.60;84.40
6724;DHT22;3399;52.530;13.304;2023-07-22T15:18:41;21.40;85.40
6724;DHT22;3399;52.530;13.304;2023-07-22T15:21:07;21.40;86.10
6724;DHT22;3399;52.530;13.304;2023-07-22T15:23:32;21.60;84.70
6724;DHT22;3399;52.530;13.304;2023-07-22T15:25:58;21.50;86.90
6724;DHT22;3399;52.530;13.304;2023-07-22T15:28:25;21.40;87.90
6724;DHT22;3399;52.530;13.304;2023-07-22T15:30:50;21.30;87.30
6724;DHT22;3399;52.530;13.304;2023-07-22T15:33:16;21.40;86.80
6724;DHT22;3399;52.530;13.304;2023-07-22T15:35:41;21.60;85.80
6724;DHT22;3399;52.530;13.304;2023-07-22T15:38:07;21.90;85.00
6724;DHT22;3399;52.530;13.304;2023-07-22T15:40:36;22.30;84.30
6724;DHT22;3399;52.530;13.304;2023-07-22T15:43:02;23.00;81.10
6724;DHT22;3399;52.530;13.304;2023-07-22T15:45:27;23.60;78.40
6724;DHT22;3399;52.530;13.304;2023-07-22T15:47:53;23.80;78.50
6724;DHT22;3399;52.530;13.304;2023-07-22T15:50:18;23.90;79.30
6724;DHT22;3399;52.530;13.304;2023-07-22T15:52:44;23.90;77.60
6724;DHT22;3399;52.530;13.304;2023-07-22T15:55:11;24.20;78.10